Tropical Cyclones
[Index]
Main Index Home Page Stock Weather Photos Extreme Storms Discussion Storm News and Storm Chasing Reports Tropical Cyclones / Hurricanes / Typhoons Weather Data and Links Wild Fires / Bushfires Weather Observation Techniques Weather Picture Catalogue Tornado Pictures and Reports Stock Video Footage and DVDs for sale
Season 1991-1992 Tropical Cyclone GRAHAM Track Map
Season 1991-1992 Summaries: [BoM-AU] [JTWC-AU] [JTWC-SIO] [JTWC-SPAC] [JTWC-SH]
<<- Previous TC | BoM 1991-1992 Season | Next TC ->>

click for intensity scale information  Lat/long Grid: Show Hide

 Date Labels: Show Hide

Bureau of Meteorology Tropical Cyclone Data

Name: GRAHAM
Number: 743 / 199192_01

02 Dec 1991 00:00 UTC to 10 Dec 1991 12:00 UTC

    date/time    lat    long    hPa   cat  kts
1991-12-02 00    5.0    95.0   1000         31          
1991-12-02 06    5.3    94.8   1000         31          
1991-12-02 12    5.6    94.6   1000         31          
1991-12-02 18    5.9    94.4   1000         31          
1991-12-03 00    6.2    94.3    995    1    39          
1991-12-03 06    6.7    94.0    990    1    47          
1991-12-03 12    7.1    93.7    985    2    54          
1991-12-03 18    7.5    93.5    975    2    66          
1991-12-04 00    8.0    93.4    965    3    80          
1991-12-04 06    8.2    93.5    955    4    89          
1991-12-04 12    8.5    93.6    945    4    99          
1991-12-04 18    9.0    93.9    935    4    109          
1991-12-05 00    9.2    94.6    930    4    113          
1991-12-05 03    9.3    95.1    925    5    117          
1991-12-05 06    9.5    95.6    920    5    122          
1991-12-05 09    9.8    95.8    915    5    126          
1991-12-05 12   10.1    96.0    915    5    126          
1991-12-05 15   10.5    96.2    915    5    126          
1991-12-05 18   10.8    96.5    920    5    122          
1991-12-05 21   11.0    97.1    925    5    117          
1991-12-06 00   11.2    97.6    930    4    113          
1991-12-06 03   11.3    98.1    935    4    109          
1991-12-06 06   11.4    98.6    940    4    103          
1991-12-06 09   11.5    99.0    945    4    99          
1991-12-06 12   11.6    99.4    950    4    95          
1991-12-06 18   11.8   100.2    965    3    80          
1991-12-07 00   12.0   101.1    975    2    66          
1991-12-07 06   12.1   101.7    980    2    60          
1991-12-07 12   12.2   102.2    985    2    54          
1991-12-07 18   12.3   102.7    990    1    47          
1991-12-08 00   12.4   103.2    995    1    39          
1991-12-08 06   12.5   103.8    995    1    39          
1991-12-08 12   13.0   104.0    995    1    39          
1991-12-08 18   13.5   104.0    995    1    39          
1991-12-09 00   14.0   104.0    995    1    39          
1991-12-09 06   14.2   104.0    995    1    39          
1991-12-09 12   14.5   104.6    995    1    39          
1991-12-09 18   14.7   104.8    995    1    39          
1991-12-10 00   15.1   104.9   1000         31          
1991-12-10 06   15.0   104.8   1005         23          
1991-12-10 12   15.0   104.5   1005         23          
Winds are 10-min average.

Tropical cyclone tracks developed by Michael Bath using data from the Bureau of Meteorology and Google Maps.


[Australian Severe Weather index] [Copyright Notice] [Email Contacts] [Search This Site] [Privacy Policy]
Document: tropical_cyclone_graham.htm Updated: 30 May 2013